createdAt,value
2018-04-26T00:00:06.642Z,15.50
2018-04-26T00:02:34.201Z,15.46
2018-04-26T00:05:01.756Z,15.47
2018-04-26T00:07:29.414Z,15.39
2018-04-26T00:09:56.965Z,15.40
2018-04-26T00:12:24.549Z,15.50
2018-04-26T00:14:52.199Z,15.54
2018-04-26T00:17:19.795Z,15.68
2018-04-26T00:19:47.462Z,15.78
2018-04-26T00:22:15.006Z,15.75
2018-04-26T00:24:42.682Z,15.59
2018-04-26T00:27:11.023Z,15.43
2018-04-26T00:29:38.574Z,15.28
2018-04-26T00:32:06.179Z,15.26
2018-04-26T00:34:33.799Z,15.35
2018-04-26T00:37:01.350Z,15.37
2018-04-26T00:39:28.937Z,15.29
2018-04-26T00:41:56.583Z,15.13
2018-04-26T00:44:24.181Z,15.01
2018-04-26T00:46:51.851Z,14.96
2018-04-26T00:49:19.393Z,14.84
2018-04-26T00:51:58.509Z,14.74
2018-04-26T00:54:26.130Z,14.58
2018-04-26T00:56:53.801Z,14.46
2018-04-26T00:59:21.414Z,14.33
2018-04-26T01:01:48.961Z,14.23
2018-04-26T01:04:16.670Z,14.11
2018-04-26T01:06:44.225Z,14.03
2018-04-26T01:09:12.706Z,13.94
2018-04-26T01:11:40.330Z,13.83
2018-04-26T01:14:07.924Z,13.75
2018-04-26T01:16:35.470Z,13.71
2018-04-26T01:19:03.017Z,13.80
2018-04-26T01:21:30.610Z,13.82
2018-04-26T01:23:58.166Z,13.85
2018-04-26T01:26:25.773Z,13.82
2018-04-26T01:28:53.364Z,13.79
2018-04-26T01:31:20.979Z,13.85
2018-04-26T01:33:48.543Z,13.90
2018-04-26T01:36:27.967Z,13.97
2018-04-26T01:38:55.580Z,14.09
2018-04-26T01:41:23.285Z,14.14
2018-04-26T01:43:50.848Z,14.25
2018-04-26T01:46:18.467Z,14.24
2018-04-26T01:48:46.935Z,14.24
2018-04-26T01:51:14.495Z,14.30
2018-04-26T01:53:42.223Z,14.26
2018-04-26T01:56:09.780Z,14.36
2018-04-26T01:58:37.338Z,14.33
2018-04-26T02:01:05.046Z,14.30
2018-04-26T02:03:32.607Z,14.21
2018-04-26T02:06:00.171Z,14.24
2018-04-26T02:08:27.776Z,14.32
2018-04-26T02:10:55.336Z,14.36
2018-04-26T02:13:22.938Z,14.30
2018-04-26T02:15:50.535Z,14.14
2018-04-26T02:18:18.167Z,14.07
2018-04-26T02:20:45.772Z,14.09
2018-04-26T02:23:13.352Z,14.26
2018-04-26T02:25:40.942Z,14.19
2018-04-26T02:28:08.538Z,14.10
2018-04-26T02:30:36.203Z,14.04
2018-04-26T02:33:03.751Z,14.02
2018-04-26T02:35:31.305Z,14.01
2018-04-26T02:37:58.903Z,13.78
2018-04-26T02:40:26.519Z,13.81
2018-04-26T02:42:54.138Z,13.78
2018-04-26T02:45:21.722Z,13.67
2018-04-26T02:47:49.330Z,13.65
2018-04-26T02:50:16.893Z,13.70
2018-04-26T02:52:44.487Z,13.70
2018-04-26T02:55:12.099Z,13.61
2018-04-26T02:57:39.763Z,13.65
2018-04-26T03:00:07.323Z,13.71
2018-04-26T03:02:34.985Z,13.60
2018-04-26T03:05:02.536Z,13.56
2018-04-26T03:07:30.103Z,13.54
2018-04-26T03:09:57.700Z,13.48
2018-04-26T03:12:25.328Z,13.32
2018-04-26T03:14:53.776Z,13.27
2018-04-26T03:17:21.331Z,13.23
2018-04-26T03:19:48.927Z,13.19
2018-04-26T03:22:16.486Z,13.04
2018-04-26T03:24:44.139Z,13.09
2018-04-26T03:27:11.690Z,13.17
2018-04-26T03:29:39.288Z,13.09
2018-04-26T03:32:06.854Z,13.21
2018-04-26T03:34:34.523Z,13.24
2018-04-26T03:37:02.151Z,13.28
2018-04-26T03:39:29.706Z,13.25
2018-04-26T03:41:57.325Z,13.32
2018-04-26T03:44:24.948Z,13.38
2018-04-26T03:46:52.499Z,13.56
2018-04-26T03:49:20.130Z,13.55
2018-04-26T03:51:47.691Z,13.42
2018-04-26T03:54:15.246Z,13.48
2018-04-26T03:56:42.849Z,13.71
2018-04-26T03:59:10.409Z,13.85
2018-04-26T04:01:49.792Z,13.91
2018-04-26T04:04:29.219Z,13.99
2018-04-26T04:06:56.904Z,14.08
2018-04-26T04:09:24.507Z,14.08
2018-04-26T04:11:52.853Z,14.10
2018-04-26T04:14:20.523Z,14.15
2018-04-26T04:16:48.152Z,14.32
2018-04-26T04:19:15.713Z,14.33
2018-04-26T04:21:43.272Z,14.47
2018-04-26T04:24:11.003Z,14.60
2018-04-26T04:26:38.558Z,14.65
2018-04-26T04:29:06.111Z,14.70
2018-04-26T04:31:33.712Z,14.75
2018-04-26T04:34:01.329Z,14.79
2018-04-26T04:36:28.984Z,14.77
2018-04-26T04:38:56.547Z,14.78
2018-04-26T04:41:24.200Z,14.94
2018-04-26T04:43:51.928Z,15.25
2018-04-26T04:46:19.546Z,15.47
2018-04-26T04:48:47.167Z,15.66
2018-04-26T04:51:14.783Z,15.67
2018-04-26T04:53:42.407Z,15.87
2018-04-26T04:56:10.015Z,15.97
2018-04-26T04:58:38.450Z,16.05
2018-04-26T05:01:06.015Z,16.21
2018-04-26T05:03:33.666Z,16.47
2018-04-26T05:06:01.280Z,16.59
2018-04-26T05:08:28.870Z,16.60
2018-04-26T05:10:57.315Z,16.67
2018-04-26T05:13:24.937Z,16.76
2018-04-26T05:15:52.498Z,16.81
2018-04-26T05:18:20.638Z,16.96
2018-04-26T05:20:48.198Z,16.95
2018-04-26T05:23:15.763Z,17.01
2018-04-26T05:25:43.427Z,17.27
2018-04-26T05:28:11.139Z,17.49
2018-04-26T05:30:38.700Z,17.65
2018-04-26T05:33:07.018Z,17.75
2018-04-26T05:35:34.599Z,17.94
2018-04-26T05:38:02.220Z,18.27
2018-04-26T05:40:29.812Z,18.44
2018-04-26T05:42:57.542Z,18.55
2018-04-26T05:45:25.109Z,18.58
2018-04-26T05:47:52.700Z,18.64
2018-04-26T05:50:21.403Z,18.74
2018-04-26T05:52:48.963Z,19.09
2018-04-26T05:55:16.514Z,19.10
2018-04-26T05:57:44.537Z,19.35
2018-04-26T06:00:12.191Z,19.55
2018-04-26T06:02:40.519Z,19.67
2018-04-26T06:05:08.081Z,19.84
2018-04-26T06:07:35.735Z,19.98
2018-04-26T06:10:03.339Z,20.25
2018-04-26T06:12:30.942Z,20.41
2018-04-26T06:14:58.551Z,20.75
2018-04-26T06:17:26.750Z,20.56
2018-04-26T06:19:54.419Z,20.76
2018-04-26T06:22:22.029Z,21.05
2018-04-26T06:24:49.627Z,21.20
2018-04-26T06:27:17.263Z,21.40
2018-04-26T06:29:45.698Z,21.96
2018-04-26T06:32:13.415Z,22.31
2018-04-26T06:34:41.006Z,22.32
2018-04-26T06:37:08.606Z,22.70
2018-04-26T06:39:37.201Z,22.92
2018-04-26T06:42:04.850Z,22.92
2018-04-26T06:44:32.395Z,22.85
2018-04-26T06:46:59.960Z,22.98
2018-04-26T06:49:27.588Z,23.09
2018-04-26T06:51:55.931Z,23.28
2018-04-26T06:54:24.209Z,23.37
2018-04-26T06:56:52.015Z,23.58
2018-04-26T06:59:19.939Z,24.04
2018-04-26T07:01:47.550Z,24.01
2018-04-26T07:04:15.178Z,24.33
2018-04-26T07:06:42.776Z,24.75
2018-04-26T07:09:10.954Z,24.98
2018-04-26T07:11:38.498Z,25.06
2018-04-26T07:14:06.056Z,25.04
2018-04-26T07:16:33.674Z,25.41
2018-04-26T07:19:01.223Z,26.04
2018-04-26T07:21:28.785Z,26.11
2018-04-26T07:23:56.580Z,27.87
2018-04-26T07:26:25.102Z,28.81
2018-04-26T07:28:52.734Z,30.25
2018-04-26T07:31:20.286Z,31.13
2018-04-26T07:33:48.688Z,32.23
2018-04-26T07:36:17.052Z,32.08
2018-04-26T07:38:44.727Z,31.05
2018-04-26T07:41:12.285Z,31.45
2018-04-26T07:43:39.844Z,33.72
2018-04-26T07:46:07.472Z,33.10
2018-04-26T07:48:36.245Z,33.73
2018-04-26T07:51:04.442Z,33.31
2018-04-26T07:53:32.046Z,32.49
2018-04-26T07:55:59.796Z,30.84
2018-04-26T07:58:27.411Z,30.10
2018-04-26T08:00:54.982Z,31.65
2018-04-26T08:03:22.580Z,33.56
2018-04-26T08:05:50.207Z,36.27
2018-04-26T08:08:17.886Z,36.57
2018-04-26T08:10:46.451Z,36.22
2018-04-26T08:13:14.114Z,35.70
2018-04-26T08:15:41.692Z,37.09
2018-04-26T08:18:09.296Z,36.60
2018-04-26T08:20:36.901Z,35.20
2018-04-26T08:23:04.473Z,38.12
2018-04-26T08:25:32.076Z,38.52
2018-04-26T08:27:59.675Z,37.91
2018-04-26T08:30:27.317Z,36.56
2018-04-26T08:32:54.882Z,38.39
2018-04-26T08:35:22.435Z,39.88
2018-04-26T08:37:50.763Z,37.60
2018-04-26T08:40:18.376Z,34.47
2018-04-26T08:42:46.212Z,33.47
2018-04-26T08:45:13.881Z,33.74
2018-04-26T08:47:41.445Z,37.99
2018-04-26T08:50:09.312Z,39.54
2018-04-26T08:52:37.023Z,37.92
2018-04-26T08:55:04.634Z,39.35
2018-04-26T08:57:33.167Z,38.66
2018-04-26T09:00:00.778Z,39.17
2018-04-26T09:02:28.529Z,40.53
2018-04-26T09:04:56.350Z,36.01
2018-04-26T09:07:24.083Z,34.10
2018-04-26T09:09:51.643Z,35.03
2018-04-26T09:12:19.194Z,38.32
2018-04-26T09:14:47.235Z,38.56
2018-04-26T09:17:15.555Z,37.41
2018-04-26T09:19:43.253Z,39.23
2018-04-26T09:22:10.860Z,40.30
2018-04-26T09:24:38.707Z,42.32
2018-04-26T09:27:06.414Z,41.92
2018-04-26T09:29:34.084Z,40.85
2018-04-26T09:32:01.651Z,41.15
2018-04-26T09:34:29.275Z,40.08
2018-04-26T09:36:56.971Z,37.94
2018-04-26T09:39:25.176Z,41.29
2018-04-26T09:41:52.744Z,39.99
2018-04-26T09:44:20.816Z,38.30
2018-04-26T09:46:48.848Z,37.62
2018-04-26T09:49:16.443Z,39.07
2018-04-26T09:51:44.099Z,39.97
2018-04-26T09:54:11.710Z,41.14
2018-04-26T09:56:40.324Z,42.27
2018-04-26T09:59:07.995Z,42.47
2018-04-26T10:01:36.495Z,43.20
2018-04-26T10:04:09.658Z,40.47
2018-04-26T10:09:35.360Z,40.95
2018-04-26T10:12:02.985Z,41.27
2018-04-26T10:14:30.631Z,41.36
2018-04-26T10:16:58.758Z,40.16
2018-04-26T10:19:26.825Z,40.89
2018-04-26T10:21:54.725Z,39.24
2018-04-26T10:24:22.873Z,40.43
2018-04-26T10:26:51.934Z,39.87
2018-04-26T10:29:19.546Z,39.98
2018-04-26T10:31:47.272Z,39.36
2018-04-26T10:34:15.530Z,40.95
2018-04-26T10:36:43.104Z,39.62
2018-04-26T10:39:10.811Z,40.72
2018-04-26T10:41:38.423Z,39.61
2018-04-26T10:44:06.005Z,39.08
2018-04-26T10:46:34.170Z,39.57
2018-04-26T10:49:01.736Z,40.18
2018-04-26T10:51:30.256Z,40.30
2018-04-26T10:53:57.877Z,41.59
2018-04-26T10:56:25.449Z,40.50
2018-04-26T10:58:53.072Z,40.30
2018-04-26T11:01:20.627Z,41.19
2018-04-26T11:03:48.515Z,40.48
2018-04-26T11:06:16.143Z,39.49
2018-04-26T11:08:43.811Z,41.60
2018-04-26T11:11:11.478Z,40.92
2018-04-26T11:13:39.150Z,41.70
2018-04-26T11:16:07.783Z,41.30
2018-04-26T11:18:35.870Z,41.26
2018-04-26T11:21:03.909Z,41.82
2018-04-26T11:23:32.510Z,41.31
2018-04-26T11:26:00.153Z,41.37
2018-04-26T11:28:28.506Z,41.64
2018-04-26T11:30:56.120Z,40.20
2018-04-26T11:33:23.690Z,40.86
2018-04-26T11:35:51.295Z,40.00
2018-04-26T11:38:20.089Z,41.79
2018-04-26T11:40:47.655Z,42.07
2018-04-26T11:43:15.355Z,40.33
2018-04-26T11:45:42.955Z,40.35
2018-04-26T11:48:10.537Z,40.37
2018-04-26T11:50:38.156Z,42.18
2018-04-26T11:53:05.800Z,44.03
2018-04-26T11:55:33.480Z,42.09
2018-04-26T11:58:02.823Z,42.75
2018-04-26T12:00:31.019Z,43.14
2018-04-26T12:02:59.146Z,43.35
2018-04-26T12:05:26.707Z,44.11
2018-04-26T12:07:54.360Z,40.77
2018-04-26T12:10:22.031Z,41.03
2018-04-26T12:12:49.731Z,41.82
2018-04-26T12:15:17.303Z,42.34
2018-04-26T12:17:44.923Z,41.75
2018-04-26T12:20:12.609Z,41.46
2018-04-26T12:22:41.166Z,43.50
2018-04-26T12:25:09.063Z,43.26
2018-04-26T12:27:36.679Z,41.19
2018-04-26T12:30:04.309Z,40.12
2018-04-26T12:32:31.869Z,40.36
2018-04-26T12:34:59.485Z,40.97
2018-04-26T12:37:27.904Z,39.81
2018-04-26T12:39:55.550Z,41.23
2018-04-26T12:42:24.066Z,41.02
2018-04-26T12:44:51.748Z,38.86
2018-04-26T12:47:20.970Z,38.48
2018-04-26T12:49:49.671Z,39.44
2018-04-26T12:52:17.404Z,40.21
2018-04-26T12:54:44.986Z,41.04
2018-04-26T12:57:13.942Z,42.89
2018-04-26T12:59:41.508Z,43.17
2018-04-26T13:02:09.814Z,42.08
2018-04-26T13:04:37.549Z,41.72
2018-04-26T13:07:05.270Z,41.77
2018-04-26T13:09:32.889Z,39.18
2018-04-26T13:12:00.538Z,39.15
2018-04-26T13:14:28.114Z,40.43
2018-04-26T13:16:55.807Z,40.33
2018-04-26T13:19:23.424Z,40.78
2018-04-26T13:21:50.983Z,41.65
2018-04-26T13:24:18.649Z,40.70
2018-04-26T13:26:46.319Z,40.59
2018-04-26T13:29:13.900Z,40.02
2018-04-26T13:31:41.622Z,40.10
2018-04-26T13:34:09.188Z,41.34
2018-04-26T13:36:36.752Z,40.42
2018-04-26T13:39:04.440Z,40.23
2018-04-26T13:41:31.990Z,40.28
2018-04-26T13:43:59.551Z,39.44
2018-04-26T13:46:27.232Z,37.94
2018-04-26T13:48:55.646Z,37.06
2018-04-26T13:51:23.284Z,36.31
2018-04-26T13:53:50.839Z,37.33
2018-04-26T13:56:18.445Z,38.33
2018-04-26T13:58:45.992Z,38.88
2018-04-26T14:01:13.606Z,37.54
2018-04-26T14:03:41.207Z,36.88
2018-04-26T14:06:08.759Z,37.16
2018-04-26T14:08:36.329Z,38.01
2018-04-26T14:11:04.847Z,39.55
2018-04-26T14:13:32.402Z,39.12
2018-04-26T14:16:00.021Z,39.32
2018-04-26T14:18:27.568Z,37.94
2018-04-26T14:20:55.123Z,38.52
2018-04-26T14:23:22.790Z,38.04
2018-04-26T14:25:50.303Z,37.65
2018-04-26T14:28:18.901Z,36.89
2018-04-26T14:30:46.455Z,37.68
2018-04-26T14:33:14.077Z,37.79
2018-04-26T14:35:41.728Z,38.11
2018-04-26T14:38:10.088Z,37.92
2018-04-26T14:40:37.642Z,38.38
2018-04-26T14:43:05.256Z,37.78
2018-04-26T14:45:32.875Z,37.90
2018-04-26T14:48:00.552Z,38.09
2018-04-26T14:50:28.202Z,38.61
2018-04-26T14:52:55.751Z,39.20
2018-04-26T14:55:23.322Z,40.36
2018-04-26T14:57:50.939Z,39.84
2018-04-26T15:00:18.491Z,39.77
2018-04-26T15:02:46.043Z,39.56
2018-04-26T15:05:13.647Z,39.40
2018-04-26T15:07:41.194Z,40.02
2018-04-26T15:10:08.800Z,37.77
2018-04-26T15:12:36.416Z,35.11
2018-04-26T15:15:04.023Z,34.20
2018-04-26T15:17:31.581Z,33.37
2018-04-26T15:19:59.222Z,32.91
2018-04-26T15:22:26.799Z,32.51
2018-04-26T15:24:54.365Z,31.44
2018-04-26T15:27:21.980Z,30.93
2018-04-26T15:29:49.537Z,30.71
2018-04-26T15:32:17.192Z,29.84
2018-04-26T15:34:44.751Z,30.30
2018-04-26T15:37:12.404Z,30.64
2018-04-26T15:39:40.109Z,30.13
2018-04-26T15:42:07.715Z,29.37
2018-04-26T15:44:35.271Z,28.76
2018-04-26T15:47:02.908Z,28.19
2018-04-26T15:49:30.516Z,27.81
2018-04-26T15:51:58.128Z,27.51
2018-04-26T15:54:36.504Z,27.17
2018-04-26T15:57:12.827Z,26.93
2018-04-26T15:59:52.220Z,26.76
2018-04-26T16:05:44.506Z,26.50
2018-04-26T16:08:29.410Z,26.46
2018-04-26T16:11:14.462Z,26.30
2018-04-26T16:13:59.412Z,26.19
2018-04-26T16:16:44.567Z,26.12
2018-04-26T16:23:05.152Z,26.14
2018-04-26T16:25:44.343Z,26.15
2018-04-26T16:32:00.059Z,26.38
2018-04-26T16:34:50.787Z,26.45
2018-04-26T16:37:35.782Z,26.45
2018-04-26T16:40:03.399Z,26.45
2018-04-26T16:42:30.951Z,26.33
2018-04-26T16:44:58.527Z,26.14
2018-04-26T16:47:26.705Z,25.91
2018-04-26T16:49:54.266Z,25.70
2018-04-26T16:52:21.859Z,25.40
2018-04-26T16:54:51.119Z,25.10
2018-04-26T16:57:18.738Z,24.98
2018-04-26T16:59:47.179Z,25.02
2018-04-26T17:02:14.788Z,25.05
2018-04-26T17:04:42.444Z,25.05
2018-04-26T17:07:10.048Z,24.95
2018-04-26T17:09:37.721Z,24.85
2018-04-26T17:12:06.416Z,24.79
2018-04-26T17:14:34.012Z,24.67
2018-04-26T17:17:02.902Z,24.57
2018-04-26T17:19:30.691Z,24.49
2018-04-26T17:21:58.312Z,24.44
2018-04-26T17:24:25.926Z,24.36
2018-04-26T17:26:53.567Z,24.25
2018-04-26T17:29:22.055Z,24.20
2018-04-26T17:31:51.102Z,24.20
2018-04-26T17:34:19.672Z,24.06
2018-04-26T17:36:47.337Z,23.87
2018-04-26T17:39:14.945Z,23.50
2018-04-26T17:41:42.561Z,23.29
2018-04-26T17:44:10.244Z,23.10
2018-04-26T17:46:37.802Z,23.21
2018-04-26T17:49:05.458Z,23.27
2018-04-26T17:51:33.083Z,23.30
2018-04-26T17:54:00.694Z,23.23
2018-04-26T17:56:28.246Z,23.18
2018-04-26T17:58:55.795Z,23.09
2018-04-26T18:01:23.464Z,22.98
2018-04-26T18:03:51.064Z,22.94
2018-04-26T18:06:18.682Z,22.83
2018-04-26T18:08:47.082Z,22.68
2018-04-26T18:11:14.651Z,22.65
2018-04-26T18:13:43.150Z,22.51
2018-04-26T18:16:10.764Z,22.42
2018-04-26T18:18:38.311Z,22.59
2018-04-26T18:21:05.984Z,22.63
2018-04-26T18:23:34.474Z,22.75
2018-04-26T18:26:02.079Z,22.85
2018-04-26T18:28:29.704Z,22.80
2018-04-26T18:30:57.384Z,22.78
2018-04-26T18:33:25.056Z,22.80
2018-04-26T18:35:54.137Z,22.86
2018-04-26T18:38:23.167Z,22.88
2018-04-26T18:40:51.743Z,22.81
2018-04-26T18:43:19.819Z,22.74
2018-04-26T18:45:48.412Z,22.69
2018-04-26T18:48:17.104Z,22.71
2018-04-26T18:50:44.754Z,22.62
2018-04-26T18:53:12.404Z,22.54
2018-04-26T18:55:40.955Z,22.48
2018-04-26T18:58:08.922Z,22.42
2018-04-26T19:00:36.478Z,22.29
2018-04-26T19:03:04.033Z,22.24
2018-04-26T19:05:31.630Z,22.27
2018-04-26T19:07:59.229Z,22.22
2018-04-26T19:10:26.827Z,21.92
2018-04-26T19:12:54.522Z,21.76
2018-04-26T19:15:22.133Z,21.44
2018-04-26T19:17:50.356Z,21.27
2018-04-26T19:20:17.979Z,21.35
2018-04-26T19:22:45.637Z,21.26
2018-04-26T19:25:13.566Z,21.15
2018-04-26T19:27:41.268Z,20.98
2018-04-26T19:30:10.354Z,20.75
2018-04-26T19:32:37.922Z,20.71
2018-04-26T19:35:05.572Z,20.58
2018-04-26T19:37:33.224Z,20.19
2018-04-26T19:40:01.641Z,19.82
2018-04-26T19:42:29.238Z,19.48
2018-04-26T19:44:56.871Z,19.22
2018-04-26T19:47:24.969Z,18.95
2018-04-26T19:49:53.759Z,18.78
2018-04-26T19:52:21.312Z,18.68
2018-04-26T19:54:49.751Z,18.66
2018-04-26T19:57:17.373Z,18.72
2018-04-26T19:59:45.904Z,18.74
2018-04-26T20:02:13.505Z,18.79
2018-04-26T20:04:41.102Z,18.83
2018-04-26T20:07:08.724Z,18.77
2018-04-26T20:09:36.378Z,18.71
2018-04-26T20:12:04.068Z,18.70
2018-04-26T20:14:32.560Z,18.74
2018-04-26T20:17:00.123Z,18.62
2018-04-26T20:19:27.775Z,18.55
2018-04-26T20:21:55.400Z,18.55
2018-04-26T20:24:22.994Z,18.61
2018-04-26T20:26:51.243Z,18.63
2018-04-26T20:29:18.918Z,18.59
2018-04-26T20:31:46.524Z,18.60
2018-04-26T20:34:14.162Z,18.66
2018-04-26T20:36:41.715Z,18.83
2018-04-26T20:39:10.195Z,18.89
2018-04-26T20:41:49.466Z,18.96
2018-04-26T20:44:28.767Z,19.07
2018-04-26T20:46:57.351Z,19.28
2018-04-26T20:49:24.898Z,19.49
2018-04-26T20:51:52.459Z,19.69
2018-04-26T20:54:20.250Z,19.87
2018-04-26T20:56:47.807Z,19.96
2018-04-26T20:59:15.406Z,20.04
2018-04-26T21:01:43.011Z,20.17
2018-04-26T21:04:10.714Z,20.11
2018-04-26T21:06:38.355Z,19.75
2018-04-26T21:09:06.176Z,19.49
2018-04-26T21:11:33.905Z,19.38
2018-04-26T21:14:01.554Z,19.44
2018-04-26T21:16:29.282Z,19.46
2018-04-26T21:18:56.961Z,19.44
2018-04-26T21:21:24.609Z,19.49
2018-04-26T21:23:52.213Z,19.67
2018-04-26T21:26:19.931Z,19.76
2018-04-26T21:28:47.531Z,19.85
2018-04-26T21:31:15.221Z,19.86
2018-04-26T21:33:42.823Z,19.94
2018-04-26T21:36:10.495Z,20.09
2018-04-26T21:38:38.205Z,20.09
2018-04-26T21:41:05.871Z,20.04
2018-04-26T21:43:33.469Z,19.99
2018-04-26T21:46:01.074Z,19.93
2018-04-26T21:48:28.722Z,19.86
2018-04-26T21:51:01.998Z,19.81
2018-04-26T21:53:35.135Z,19.80
2018-04-26T21:56:08.322Z,19.78
2018-04-26T21:58:41.411Z,19.81
2018-04-26T22:01:14.786Z,19.79
2018-04-26T22:03:58.244Z,19.84
2018-04-26T22:06:25.900Z,19.77
2018-04-26T22:08:53.564Z,19.71
2018-04-26T22:11:21.285Z,19.71
2018-04-26T22:13:48.890Z,19.65
2018-04-26T22:16:16.567Z,19.54
2018-04-26T22:18:44.166Z,19.48
2018-04-26T22:21:11.835Z,19.45
2018-04-26T22:23:39.491Z,19.39
2018-04-26T22:26:07.094Z,19.12
2018-04-26T22:28:34.750Z,18.89
2018-04-26T22:31:02.456Z,18.87
2018-04-26T22:33:30.074Z,19.03
2018-04-26T22:35:57.718Z,19.00
2018-04-26T22:38:25.326Z,18.71
2018-04-26T22:40:52.936Z,18.51
2018-04-26T22:43:20.575Z,18.26
2018-04-26T22:45:48.174Z,18.19
2018-04-26T22:48:15.867Z,17.94
2018-04-26T22:50:43.543Z,17.65
2018-04-26T22:53:11.206Z,17.45
2018-04-26T22:55:38.911Z,17.29
2018-04-26T22:58:06.638Z,17.12
2018-04-26T23:00:34.246Z,16.95
2018-04-26T23:03:01.859Z,16.82
2018-04-26T23:05:29.583Z,16.77
2018-04-26T23:07:57.186Z,16.84
2018-04-26T23:10:24.895Z,16.74
2018-04-26T23:12:52.511Z,16.73
2018-04-26T23:15:20.164Z,16.67
2018-04-26T23:17:47.826Z,16.56
2018-04-26T23:20:15.494Z,16.67
2018-04-26T23:22:43.217Z,16.55
2018-04-26T23:25:10.899Z,16.28
2018-04-26T23:27:38.522Z,16.18
2018-04-26T23:30:06.132Z,16.08
2018-04-26T23:32:33.779Z,15.99
2018-04-26T23:35:01.501Z,16.01
2018-04-26T23:37:29.143Z,15.95
2018-04-26T23:39:56.759Z,15.85
2018-04-26T23:42:24.371Z,15.84
2018-04-26T23:44:52.028Z,15.76
2018-04-26T23:47:19.751Z,15.71
2018-04-26T23:49:47.359Z,15.77
2018-04-26T23:52:15.045Z,15.93
2018-04-26T23:54:42.776Z,15.96
2018-04-26T23:57:10.386Z,15.98
2018-04-26T23:59:38.009Z,15.94
